Overton RPC :: 100B

liberation: 2020-09-26  08:30     latitude: 36.107992     longitude: -86.925452 35 birds
# LOFT PRING MILES ARRIVAL SPEED ToWin
1 LET IT GO LOFT IF20-ORP-0109 116.698 2020-09-26 11:49:27.380 1029.745 00:00:00
2 VALHALLA LOFTS IF20-VALH-0003 93.284 2020-09-26 11:27:14.227 926.333 00:17:48
3 VALHALLA LOFTS IF20-VALH-0018 93.284 2020-09-26 11:27:34.389 924.580 00:18:08
4 VALHALLA LOFTS IF20-ORP-0005 93.284 2020-09-26 11:27:37.135 924.342 00:18:11
5 VALHALLA LOFTS IF20-VALH-0045 93.284 2020-09-26 11:27:39.097 924.172 00:18:13
6 VALHALLA LOFTS IF20-ORP-0004 93.284 2020-09-26 11:27:40.978 924.009 00:18:15
7 VALHALLA LOFTS IF20-VALH-0097 93.284 2020-09-26 11:27:48.778 923.333 00:18:22
8 VALHALLA LOFTS IF20-VALH-0020 93.284 2020-09-26 11:27:49.157 923.300 00:18:23
9 VALHALLA LOFTS IF20-VALH-0012 93.284 2020-09-26 11:27:50.760 923.162 00:18:24
10 VALHALLA LOFTS IF20-VALH-0030 93.284 2020-09-26 11:27:51.774 923.074 00:18:25
11 VALHALLA LOFTS IF20-VALH-0038 93.284 2020-09-26 11:27:53.827 922.896 00:18:28
12 VALHALLA LOFTS IF20-VALH-0039 93.284 2020-09-26 11:27:57.469 922.582 00:18:31
13 VALHALLA LOFTS IF20-ORP-0017 93.284 2020-09-26 11:28:02.762 922.125 00:18:36
14 VALHALLA LOFTS IF20-VALH-0032 93.284 2020-09-26 11:28:07.634 921.704 00:18:41
15 VALHALLA LOFTS IF20-VALH-0031 93.284 2020-09-26 11:28:35.824 919.280 00:19:10
16 VALHALLA LOFTS IF20-VALH-0010 93.284 2020-09-26 11:28:36.781 919.197 00:19:10
17 VALHALLA LOFTS IF20-VALH-0040 93.284 2020-09-26 11:28:52.061 917.889 00:19:26
18 VALHALLA LOFTS IF20-VALH-0019 93.284 2020-09-26 11:29:00.676 917.152 00:19:34
19 VALHALLA LOFTS IF20-ORP-0016 93.284 2020-09-26 11:29:12.426 916.150 00:19:46
20 VALHALLA LOFTS IF20-VALH-0034 93.284 2020-09-26 11:29:17.668 915.704 00:19:51
21 LET IT GO LOFT IF20-ORP-0119 116.698 2020-09-26 12:19:00.465 896.866 00:29:33
22 VALHALLA LOFTS IF20-VALH-0051 93.284 2020-09-26 11:34:59.735 887.484 00:25:33
23 VALHALLA LOFTS IF20-VALH-0041 93.284 2020-09-26 11:35:01.145 887.371 00:25:35
24 VALHALLA LOFTS IF20-VALH-0014 93.284 2020-09-26 11:53:05.362 808.416 00:43:39
25 LET IT GO LOFT IF20-ORP-0130 116.698 2020-09-26 12:46:49.413 799.729 00:57:22
26 VALHALLA LOFTS IF20-VALH-0022 93.284 2020-09-26 12:42:23.749 650.489 01:32:57
27 LET IT GO LOFT IF20-ORP-0138 116.698 2020-09-26 13:48:58.453 643.905 01:59:31
28 VALHALLA LOFTS IF20-ORP-0003 93.284 2020-09-26 13:49:21.020 514.108 02:39:55
29 VALHALLA LOFTS IF20-ORP-0010 93.284 2020-09-26 16:53:14.362 326.248 05:43:48
LET IT GO LOFT IF20-ORP-0113 0 0000-00-00 00:00:00.000 0.000 00:00:00
LET IT GO LOFT IF20-ORP-0123 0 0000-00-00 00:00:00.000 0.000 00:00:00
LET IT GO LOFT IF20-ORP-0143 0 0000-00-00 00:00:00.000 0.000 00:00:00
LET IT GO LOFT IF20-ORP-0146 0 0000-00-00 00:00:00.000 0.000 00:00:00
LET IT GO LOFT IF20-ORP-0147 0 0000-00-00 00:00:00.000 0.000 00:00:00
LET IT GO LOFT IF20-ORP-0148 0 0000-00-00 00:00:00.000 0.000 00:00:00